Billingsville, Indiana
Current Conditions -  °F | °C
As of 7:55 AM on Friday 31 Oct 2014 (Local Time) from KI67 Reporting Station
Overcast Overcast  
Wind Chill: 39°   Ceiling: 4400
Heat Index: 39°   Visibility: 0.75mi
Dew Point: 39°   Wind: 0mph
Humidity: 100%   Direction: NA
Pressure: 29.98"   Gusts: NA
Location:  39.6086°N, 84.9137°W
Report Text: KI67 311155Z AUTO 00000KT 3/4SM BKN044 OVC050 04/04 A2998 RMK AO1
Loading
Personal Weather Stations






























Interactive Weather Map New forecast layout! Learn more

10-Day Weather Forecast

Advertisements
Track Severe Weather on mobile